createdAt,value
2016-12-12T00:00:25.425Z,1007.89
2016-12-12T00:01:36.171Z,1007.99
2016-12-12T00:02:46.914Z,1007.93
2016-12-12T00:03:57.634Z,1007.91
2016-12-12T00:05:08.383Z,1007.93
2016-12-12T00:06:19.130Z,1007.89
2016-12-12T00:07:29.851Z,1007.86
2016-12-12T00:08:40.595Z,1007.87
2016-12-12T00:09:51.347Z,1007.88
2016-12-12T00:11:02.114Z,1007.84
2016-12-12T00:12:12.877Z,1007.86
2016-12-12T00:13:23.602Z,1007.88
2016-12-12T00:14:34.353Z,1007.81
2016-12-12T00:15:45.098Z,1007.86
2016-12-12T00:16:55.841Z,1007.82
2016-12-12T00:18:06.596Z,1007.8
2016-12-12T00:19:17.336Z,1007.75
2016-12-12T00:20:28.084Z,1007.73
2016-12-12T00:21:38.803Z,1007.68
2016-12-12T00:22:49.546Z,1007.75
2016-12-12T00:24:00.271Z,1007.7
2016-12-12T00:25:10.998Z,1007.73
2016-12-12T00:26:21.741Z,1007.71
2016-12-12T00:27:32.481Z,1007.72
2016-12-12T00:28:43.530Z,1007.7
2016-12-12T00:29:54.256Z,1007.67
2016-12-12T00:31:05.001Z,1007.73
2016-12-12T00:32:15.719Z,1007.61
2016-12-12T00:33:26.468Z,1007.68
2016-12-12T00:34:37.235Z,1007.63
2016-12-12T00:35:47.961Z,1007.64
2016-12-12T00:36:58.680Z,1007.64
2016-12-12T00:38:09.428Z,1007.64
2016-12-12T00:39:20.172Z,1007.64
2016-12-12T00:40:30.925Z,1007.69
2016-12-12T00:41:41.661Z,1007.64
2016-12-12T00:42:52.404Z,1007.64
2016-12-12T00:44:03.153Z,1007.72
2016-12-12T00:45:13.905Z,1007.69
2016-12-12T00:46:24.625Z,1007.69
2016-12-12T00:47:35.366Z,1007.69
2016-12-12T00:48:46.115Z,1007.7
2016-12-12T00:49:56.861Z,1007.75
2016-12-12T00:51:07.576Z,1007.78
2016-12-12T00:52:18.319Z,1007.72
2016-12-12T00:53:29.046Z,1007.71
2016-12-12T00:54:39.792Z,1007.75
2016-12-12T00:55:50.488Z,1007.76
2016-12-12T00:57:01.227Z,1007.81
2016-12-12T00:58:11.978Z,1007.79
2016-12-12T00:59:22.707Z,1007.83
2016-12-12T01:00:33.423Z,1007.7
2016-12-12T01:01:44.127Z,1007.69
2016-12-12T01:02:54.840Z,1007.72
2016-12-12T01:04:05.538Z,1007.62
2016-12-12T01:05:16.286Z,1007.67
2016-12-12T01:06:27.032Z,1007.64
2016-12-12T01:07:37.778Z,1007.6
2016-12-12T01:08:48.520Z,1007.66
2016-12-12T01:09:59.275Z,1007.64
2016-12-12T01:11:10.017Z,1007.67
2016-12-12T01:12:21.038Z,1007.68
2016-12-12T01:13:31.791Z,1007.66
2016-12-12T01:14:42.501Z,1007.68
2016-12-12T01:15:53.247Z,1007.64
2016-12-12T01:17:03.973Z,1007.66
2016-12-12T01:18:14.689Z,1007.63
2016-12-12T01:19:25.410Z,1007.67
2016-12-12T01:20:36.160Z,1007.68
2016-12-12T01:21:46.902Z,1007.71
2016-12-12T01:22:57.652Z,1007.67
2016-12-12T01:24:08.398Z,1007.65
2016-12-12T01:25:19.458Z,1007.74
2016-12-12T01:26:30.171Z,1007.71
2016-12-12T01:27:40.882Z,1007.71
2016-12-12T01:28:51.609Z,1007.68
2016-12-12T01:30:02.330Z,1007.72
2016-12-12T01:31:13.105Z,1007.79
2016-12-12T01:32:23.821Z,1007.74
2016-12-12T01:33:34.892Z,1007.76
2016-12-12T01:34:45.638Z,1007.78
2016-12-12T01:35:56.358Z,1007.78
2016-12-12T01:37:07.129Z,1007.76
2016-12-12T01:38:17.872Z,1007.74
2016-12-12T01:39:28.624Z,1007.82
2016-12-12T01:40:39.364Z,1007.77
2016-12-12T01:41:50.090Z,1007.74
2016-12-12T01:43:00.827Z,1007.75
2016-12-12T01:44:11.578Z,1007.79
2016-12-12T01:45:22.322Z,1007.78
2016-12-12T01:46:33.048Z,1007.81
2016-12-12T01:47:43.762Z,1007.78
2016-12-12T01:48:54.511Z,1007.84
2016-12-12T01:50:05.231Z,1007.87
2016-12-12T01:51:15.982Z,1007.89
2016-12-12T01:52:26.728Z,1007.89
2016-12-12T01:53:37.470Z,1007.94
2016-12-12T01:54:48.165Z,1007.93
2016-12-12T01:55:58.911Z,1007.93
2016-12-12T01:57:09.637Z,1007.92
2016-12-12T01:58:20.379Z,1007.99
2016-12-12T01:59:31.131Z,1008.05
2016-12-12T02:00:41.871Z,1008.14
2016-12-12T02:01:52.595Z,1008.16
2016-12-12T02:03:03.363Z,1008.04
2016-12-12T02:04:14.116Z,1008.16
2016-12-12T02:05:24.860Z,1008.19
2016-12-12T02:06:35.576Z,1008.2
2016-12-12T02:07:46.323Z,1008.27
2016-12-12T02:08:57.023Z,1008.34
2016-12-12T02:10:07.764Z,1008.31
2016-12-12T02:11:18.515Z,1008.45
2016-12-12T02:12:29.281Z,1008.46
2016-12-12T02:13:40.032Z,1008.45
2016-12-12T02:14:50.798Z,1008.44
2016-12-12T02:16:01.544Z,1008.48
2016-12-12T02:17:12.290Z,1008.5
2016-12-12T02:18:22.990Z,1008.53
2016-12-12T02:19:33.737Z,1008.56
2016-12-12T02:20:44.482Z,1008.59
2016-12-12T02:21:55.201Z,1008.61
2016-12-12T02:23:05.960Z,1008.72
2016-12-12T02:24:16.716Z,1008.68
2016-12-12T02:25:27.441Z,1008.65
2016-12-12T02:26:38.487Z,1008.68
2016-12-12T02:27:49.201Z,1008.71
2016-12-12T02:28:59.971Z,1008.7
2016-12-12T02:30:10.747Z,1008.77
2016-12-12T02:31:21.500Z,1008.74
2016-12-12T02:32:32.243Z,1008.73
2016-12-12T02:33:42.988Z,1008.68
2016-12-12T02:34:53.735Z,1008.74
2016-12-12T02:36:04.451Z,1008.76
2016-12-12T02:37:15.178Z,1008.79
2016-12-12T02:38:25.893Z,1008.75
2016-12-12T02:39:36.631Z,1008.7
2016-12-12T02:40:47.661Z,1008.72
2016-12-12T02:41:58.411Z,1008.77
2016-12-12T02:43:09.154Z,1008.81
2016-12-12T02:44:19.877Z,1008.82
2016-12-12T02:45:30.625Z,1008.87
2016-12-12T02:46:41.687Z,1008.92
2016-12-12T02:47:52.404Z,1008.94
2016-12-12T02:49:03.129Z,1008.96
2016-12-12T02:50:13.833Z,1009.02
2016-12-12T02:51:24.575Z,1009.06
2016-12-12T02:52:35.302Z,1009.11
2016-12-12T02:53:46.045Z,1009.11
2016-12-12T02:54:56.788Z,1009.14
2016-12-12T02:56:07.514Z,1009.16
2016-12-12T02:57:18.205Z,1009.16
2016-12-12T02:58:28.954Z,1009.19
2016-12-12T02:59:39.696Z,1009.19
2016-12-12T03:00:50.426Z,1009.25
2016-12-12T03:02:01.442Z,1009.25
2016-12-12T03:03:12.193Z,1009.33
2016-12-12T03:04:22.930Z,1009.36
2016-12-12T03:05:33.657Z,1009.41
2016-12-12T03:06:44.427Z,1009.41
2016-12-12T03:07:55.198Z,1009.46
2016-12-12T03:09:05.940Z,1009.47
2016-12-12T03:10:17.008Z,1009.48
2016-12-12T03:11:27.732Z,1009.45
2016-12-12T03:12:38.452Z,1009.48
2016-12-12T03:13:49.178Z,1009.5
2016-12-12T03:14:59.894Z,1009.52
2016-12-12T03:16:10.615Z,1009.48
2016-12-12T03:17:21.341Z,1009.51
2016-12-12T03:18:32.087Z,1009.51
2016-12-12T03:19:42.846Z,1009.51
2016-12-12T03:20:53.574Z,1009.53
2016-12-12T03:22:04.312Z,1009.54
2016-12-12T03:23:15.045Z,1009.58
2016-12-12T03:24:25.781Z,1009.54
2016-12-12T03:25:36.484Z,1009.56
2016-12-12T03:26:47.211Z,1009.61
2016-12-12T03:27:57.931Z,1009.66
2016-12-12T03:29:08.671Z,1009.63
2016-12-12T03:30:19.422Z,1009.68
2016-12-12T03:31:30.142Z,1009.67
2016-12-12T03:32:40.888Z,1009.75
2016-12-12T03:33:51.605Z,1009.78
2016-12-12T03:35:02.357Z,1009.78
2016-12-12T03:36:13.103Z,1009.82
2016-12-12T03:37:23.818Z,1009.83
2016-12-12T03:38:34.545Z,1009.84
2016-12-12T03:39:45.290Z,1009.82
2016-12-12T03:40:56.033Z,1009.79
2016-12-12T03:42:06.774Z,1009.8
2016-12-12T03:43:17.527Z,1009.78
2016-12-12T03:44:28.244Z,1009.77
2016-12-12T03:45:38.969Z,1009.85
2016-12-12T03:46:49.740Z,1009.83
2016-12-12T03:48:00.507Z,1009.86
2016-12-12T03:49:11.247Z,1009.94
2016-12-12T03:50:21.999Z,1009.97
2016-12-12T03:51:32.724Z,1010.04
2016-12-12T03:52:43.508Z,1010.02
2016-12-12T03:53:54.271Z,1010.02
2016-12-12T03:55:04.982Z,1010.06
2016-12-12T03:56:15.729Z,1010.09
2016-12-12T03:57:26.506Z,1010.03
2016-12-12T03:58:37.239Z,1010.08
2016-12-12T03:59:47.948Z,1010.1
2016-12-12T04:00:58.710Z,1010.01
2016-12-12T04:02:09.459Z,1010.1
2016-12-12T04:03:20.202Z,1010.15
2016-12-12T04:04:30.948Z,1010.14
2016-12-12T04:05:41.676Z,1010.17
2016-12-12T04:06:52.397Z,1010.14
2016-12-12T04:08:03.139Z,1010.13
2016-12-12T04:09:13.882Z,1010.16
2016-12-12T04:10:24.630Z,1010.15
2016-12-12T04:11:35.352Z,1010.14
2016-12-12T04:12:46.101Z,1010.18
2016-12-12T04:13:56.818Z,1010.2
2016-12-12T04:15:07.548Z,1010.29
2016-12-12T04:16:18.253Z,1010.27
2016-12-12T04:17:28.973Z,1010.28
2016-12-12T04:18:39.706Z,1010.29
2016-12-12T04:19:50.456Z,1010.33
2016-12-12T04:21:01.198Z,1010.34
2016-12-12T04:22:11.917Z,1010.38
2016-12-12T04:23:22.637Z,1010.38
2016-12-12T04:24:33.382Z,1010.39
2016-12-12T04:25:44.128Z,1010.4
2016-12-12T04:26:54.903Z,1010.41
2016-12-12T04:28:05.650Z,1010.38
2016-12-12T04:29:16.390Z,1010.42
2016-12-12T04:30:27.092Z,1010.41
2016-12-12T04:31:37.854Z,1010.44
2016-12-12T04:32:48.582Z,1010.4
2016-12-12T04:33:59.328Z,1010.45
2016-12-12T04:35:10.074Z,1010.49
2016-12-12T04:36:20.838Z,1010.53
2016-12-12T04:37:31.592Z,1010.55
2016-12-12T04:38:42.664Z,1010.53
2016-12-12T04:39:53.407Z,1010.6
2016-12-12T04:41:04.153Z,1010.58
2016-12-12T04:42:14.875Z,1010.6
2016-12-12T04:43:25.595Z,1010.66
2016-12-12T04:44:36.341Z,1010.74
2016-12-12T04:45:47.086Z,1010.73
2016-12-12T04:46:57.832Z,1010.78
2016-12-12T04:48:08.574Z,1010.79
2016-12-12T04:49:19.296Z,1010.81
2016-12-12T04:50:30.016Z,1010.81
2016-12-12T04:51:40.767Z,1010.83
2016-12-12T04:52:51.486Z,1010.81
2016-12-12T04:54:02.237Z,1010.88
2016-12-12T04:55:12.979Z,1010.84
2016-12-12T04:56:23.721Z,1010.88
2016-12-12T04:57:34.465Z,1010.89
2016-12-12T04:58:45.192Z,1010.95
2016-12-12T04:59:55.954Z,1010.94
2016-12-12T05:01:06.700Z,1011
2016-12-12T05:02:17.450Z,1011.02
2016-12-12T05:03:28.196Z,1011.02
2016-12-12T05:04:38.912Z,1011.06
2016-12-12T05:05:49.941Z,1011.06
2016-12-12T05:07:00.990Z,1011.05
2016-12-12T05:08:12.032Z,1011.09
2016-12-12T05:09:22.780Z,1011.15
2016-12-12T05:10:33.550Z,1011.12
2016-12-12T05:11:44.292Z,1011.08
2016-12-12T05:12:55.060Z,1011.09
2016-12-12T05:14:05.814Z,1011.13
2016-12-12T05:15:16.576Z,1011.18
2016-12-12T05:16:27.306Z,1011.14
2016-12-12T05:17:38.051Z,1011.19
2016-12-12T05:18:48.778Z,1011.22
2016-12-12T05:19:59.515Z,1011.26
2016-12-12T05:21:10.235Z,1011.27
2016-12-12T05:22:21.281Z,1011.31
2016-12-12T05:23:32.008Z,1011.33
2016-12-12T05:24:42.716Z,1011.37
2016-12-12T05:25:53.475Z,1011.33
2016-12-12T05:27:04.184Z,1011.34
2016-12-12T05:28:14.920Z,1011.35
2016-12-12T05:29:25.639Z,1011.39
2016-12-12T05:30:36.409Z,1011.35
2016-12-12T05:31:47.154Z,1011.42
2016-12-12T05:32:57.920Z,1011.43
2016-12-12T05:34:08.642Z,1011.48
2016-12-12T05:35:19.391Z,1011.5
2016-12-12T05:36:30.139Z,1011.47
2016-12-12T05:37:40.893Z,1011.45
2016-12-12T05:38:51.605Z,1011.48
2016-12-12T05:40:02.343Z,1011.5
2016-12-12T05:41:13.047Z,1011.51
2016-12-12T05:42:23.743Z,1011.52
2016-12-12T05:43:34.461Z,1011.6
2016-12-12T05:44:45.185Z,1011.55
2016-12-12T05:45:55.931Z,1011.61
2016-12-12T05:47:06.677Z,1011.61
2016-12-12T05:48:17.419Z,1011.65
2016-12-12T05:49:28.137Z,1011.67
2016-12-12T05:50:38.865Z,1011.72
2016-12-12T05:51:49.615Z,1011.7
2016-12-12T05:53:00.329Z,1011.81
2016-12-12T05:54:11.066Z,1011.81
2016-12-12T05:55:21.817Z,1011.86
2016-12-12T05:56:32.566Z,1011.9
2016-12-12T05:57:43.313Z,1011.92
2016-12-12T05:58:54.033Z,1011.93
2016-12-12T06:00:04.776Z,1011.86
2016-12-12T06:01:15.526Z,1011.94
2016-12-12T06:02:26.247Z,1012.02
2016-12-12T06:03:36.997Z,1012.01
2016-12-12T06:04:47.756Z,1012.03
2016-12-12T06:05:58.488Z,1012
2016-12-12T06:07:09.259Z,1012.03
2016-12-12T06:08:20.024Z,1012.08
2016-12-12T06:09:30.773Z,1012.05
2016-12-12T06:10:41.526Z,1012.05
2016-12-12T06:11:52.249Z,1012.03
2016-12-12T06:13:03.012Z,1012.1
2016-12-12T06:14:13.761Z,1012.13
2016-12-12T06:15:24.495Z,1012.1
2016-12-12T06:16:35.203Z,1012.15
2016-12-12T06:17:45.930Z,1012.17
2016-12-12T06:18:56.684Z,1012.25
2016-12-12T06:20:07.420Z,1012.26
2016-12-12T06:21:18.155Z,1012.27
2016-12-12T06:22:28.879Z,1012.27
2016-12-12T06:23:39.630Z,1012.34
2016-12-12T06:24:50.351Z,1012.39
2016-12-12T06:26:01.068Z,1012.44
2016-12-12T06:27:11.789Z,1012.46
2016-12-12T06:28:22.542Z,1012.49
2016-12-12T06:29:33.284Z,1012.5
2016-12-12T06:30:44.031Z,1012.55
2016-12-12T06:31:54.779Z,1012.57
2016-12-12T06:33:05.523Z,1012.66
2016-12-12T06:34:16.270Z,1012.67
2016-12-12T06:35:27.003Z,1012.69
2016-12-12T06:36:37.738Z,1012.76
2016-12-12T06:37:48.478Z,1012.83
2016-12-12T06:38:59.198Z,1012.83
2016-12-12T06:40:09.945Z,1012.82
2016-12-12T06:41:20.695Z,1012.87
2016-12-12T06:42:31.411Z,1012.9
2016-12-12T06:43:42.138Z,1012.99
2016-12-12T06:44:52.872Z,1012.99
2016-12-12T06:46:03.596Z,1013.03
2016-12-12T06:47:14.332Z,1013.07
2016-12-12T06:48:25.070Z,1013.06
2016-12-12T06:49:35.784Z,1013.11
2016-12-12T06:50:46.513Z,1013.12
2016-12-12T06:51:57.283Z,1013.23
2016-12-12T06:53:08.029Z,1013.19
2016-12-12T06:54:18.763Z,1013.25
2016-12-12T06:55:29.485Z,1013.26
2016-12-12T06:56:40.217Z,1013.3
2016-12-12T06:57:50.936Z,1013.37
2016-12-12T06:59:01.652Z,1013.36
2016-12-12T07:00:12.379Z,1013.4
2016-12-12T07:01:23.127Z,1013.45
2016-12-12T07:02:33.868Z,1013.47
2016-12-12T07:03:44.619Z,1013.5
2016-12-12T07:04:55.364Z,1013.52
2016-12-12T07:06:06.112Z,1013.49
2016-12-12T07:07:16.828Z,1013.55
2016-12-12T07:08:27.598Z,1013.54
2016-12-12T07:09:38.316Z,1013.56
2016-12-12T07:10:49.040Z,1013.6
2016-12-12T07:11:59.790Z,1013.68
2016-12-12T07:13:10.533Z,1013.71
2016-12-12T07:14:21.255Z,1013.72
2016-12-12T07:15:31.984Z,1013.76
2016-12-12T07:16:42.700Z,1013.83
2016-12-12T07:17:53.448Z,1013.9
2016-12-12T07:19:04.180Z,1013.85
2016-12-12T07:20:14.911Z,1013.91
2016-12-12T07:21:25.631Z,1013.97
2016-12-12T07:22:36.367Z,1013.98
2016-12-12T07:23:47.072Z,1014.03
2016-12-12T07:24:57.814Z,1014.07
2016-12-12T07:26:08.543Z,1014.1
2016-12-12T07:27:19.289Z,1014.14
2016-12-12T07:28:30.006Z,1014.16
2016-12-12T07:29:40.756Z,1014.22
2016-12-12T07:30:51.490Z,1014.23
2016-12-12T07:32:02.220Z,1014.22
2016-12-12T07:33:12.944Z,1014.22
2016-12-12T07:34:23.661Z,1014.27
2016-12-12T07:35:34.382Z,1014.3
2016-12-12T07:36:45.103Z,1014.3
2016-12-12T07:37:55.854Z,1014.3
2016-12-12T07:39:06.622Z,1014.37
2016-12-12T07:40:17.371Z,1014.34
2016-12-12T07:41:28.159Z,1014.4
2016-12-12T07:42:38.891Z,1014.41
2016-12-12T07:43:49.629Z,1014.46
2016-12-12T07:45:00.375Z,1014.44
2016-12-12T07:46:11.107Z,1014.51
2016-12-12T07:47:21.842Z,1014.51
2016-12-12T07:48:32.597Z,1014.49
2016-12-12T07:49:43.359Z,1014.54
2016-12-12T07:50:54.080Z,1014.59
2016-12-12T07:52:04.826Z,1014.57
2016-12-12T07:53:15.873Z,1014.59
2016-12-12T07:54:26.598Z,1014.61
2016-12-12T07:55:37.370Z,1014.63
2016-12-12T07:56:48.111Z,1014.66
2016-12-12T07:57:58.857Z,1014.69
2016-12-12T07:59:09.578Z,1014.73
2016-12-12T08:00:20.306Z,1014.73
2016-12-12T08:01:31.053Z,1014.8
2016-12-12T08:02:41.823Z,1014.83
2016-12-12T08:03:52.592Z,1014.81
2016-12-12T08:05:03.337Z,1014.86
2016-12-12T08:06:14.076Z,1014.88
2016-12-12T08:07:24.806Z,1014.89
2016-12-12T08:08:35.530Z,1014.91
2016-12-12T08:09:46.297Z,1014.93
2016-12-12T08:10:57.038Z,1014.94
2016-12-12T08:12:07.788Z,1015.02
2016-12-12T08:13:18.509Z,1015.01
2016-12-12T08:14:29.226Z,1015.03
2016-12-12T08:15:39.978Z,1015.1
2016-12-12T08:16:50.699Z,1015.07
2016-12-12T08:18:01.439Z,1015.13
2016-12-12T08:19:12.163Z,1015.19
2016-12-12T08:20:22.910Z,1015.12
2016-12-12T08:21:33.683Z,1015.2
2016-12-12T08:22:44.430Z,1015.19
2016-12-12T08:23:55.194Z,1015.25
2016-12-12T08:25:05.920Z,1015.22
2016-12-12T08:26:16.691Z,1015.24
2016-12-12T08:27:27.438Z,1015.28
2016-12-12T08:28:38.184Z,1015.35
2016-12-12T08:29:48.921Z,1015.34
2016-12-12T08:30:59.651Z,1015.38
2016-12-12T08:32:10.385Z,1015.37
2016-12-12T08:33:21.087Z,1015.5
2016-12-12T08:34:31.804Z,1015.56
2016-12-12T08:35:42.561Z,1015.63
2016-12-12T08:36:53.300Z,1015.69
2016-12-12T08:38:04.023Z,1015.73
2016-12-12T08:39:14.773Z,1015.71
2016-12-12T08:40:25.517Z,1015.8
2016-12-12T08:41:36.241Z,1015.81
2016-12-12T08:42:46.955Z,1015.86
2016-12-12T08:43:57.706Z,1015.92
2016-12-12T08:45:08.448Z,1015.96
2016-12-12T08:46:19.160Z,1016.01
2016-12-12T08:47:29.865Z,1016
2016-12-12T08:48:40.916Z,1016.02
2016-12-12T08:49:51.663Z,1015.99
2016-12-12T08:51:02.403Z,1016
2016-12-12T08:52:13.123Z,1016.09
2016-12-12T08:53:23.848Z,1016.14
2016-12-12T08:54:34.595Z,1016.17
2016-12-12T08:55:45.334Z,1016.25
2016-12-12T08:56:56.089Z,1016.24
2016-12-12T08:58:06.829Z,1016.32
2016-12-12T08:59:17.555Z,1016.3
2016-12-12T09:00:28.301Z,1016.39
2016-12-12T09:01:39.042Z,1016.36
2016-12-12T09:02:49.784Z,1016.43
2016-12-12T09:04:00.531Z,1016.45
2016-12-12T09:05:11.587Z,1016.49
2016-12-12T09:06:22.629Z,1016.53
2016-12-12T09:07:33.372Z,1016.58
2016-12-12T09:08:44.096Z,1016.61
2016-12-12T09:09:54.838Z,1016.67
2016-12-12T09:11:05.590Z,1016.69
2016-12-12T09:12:16.355Z,1016.67
2016-12-12T09:13:27.107Z,1016.81
2016-12-12T09:14:37.855Z,1016.82
2016-12-12T09:15:48.593Z,1016.86
2016-12-12T09:16:59.315Z,1016.9
2016-12-12T09:18:10.057Z,1016.93
2016-12-12T09:19:20.809Z,1016.98
2016-12-12T09:20:31.545Z,1016.99
2016-12-12T09:21:42.299Z,1017
2016-12-12T09:22:53.036Z,1017.08
2016-12-12T09:24:03.764Z,1017.1
2016-12-12T09:25:14.504Z,1017.07
2016-12-12T09:26:25.239Z,1017.15
2016-12-12T09:27:35.978Z,1017.21
2016-12-12T09:28:46.704Z,1017.3
2016-12-12T09:29:57.445Z,1017.33
2016-12-12T09:31:08.191Z,1017.36
2016-12-12T09:32:18.942Z,1017.39
2016-12-12T09:33:29.684Z,1017.42
2016-12-12T09:34:40.431Z,1017.47
2016-12-12T09:35:51.472Z,1017.52
2016-12-12T09:37:02.218Z,1017.55
2016-12-12T09:38:12.939Z,1017.6
2016-12-12T09:39:23.690Z,1017.62
2016-12-12T09:40:34.409Z,1017.63
2016-12-12T09:41:45.181Z,1017.73
2016-12-12T09:42:55.926Z,1017.71
2016-12-12T09:44:06.665Z,1017.82
2016-12-12T09:45:17.373Z,1017.88
2016-12-12T09:46:28.120Z,1017.83
2016-12-12T09:47:38.861Z,1017.87
2016-12-12T09:48:49.610Z,1017.89
2016-12-12T09:50:00.361Z,1017.83
2016-12-12T09:51:11.108Z,1017.95
2016-12-12T09:52:21.820Z,1017.86
2016-12-12T09:53:32.541Z,1017.98
2016-12-12T09:54:43.267Z,1017.92
2016-12-12T09:55:54.007Z,1017.92
2016-12-12T09:57:04.759Z,1018
2016-12-12T09:58:15.499Z,1018
2016-12-12T09:59:26.213Z,1018.06
2016-12-12T10:00:36.947Z,1017.98
2016-12-12T10:01:47.666Z,1017.98
2016-12-12T10:02:58.401Z,1018.1
2016-12-12T10:04:09.455Z,1018.14
2016-12-12T10:05:20.207Z,1018.15
2016-12-12T10:06:30.952Z,1018.17
2016-12-12T10:07:41.692Z,1018.18
2016-12-12T10:08:52.438Z,1018.26
2016-12-12T10:10:03.188Z,1018.24
2016-12-12T10:11:13.936Z,1018.26
2016-12-12T10:12:24.656Z,1018.31
2016-12-12T10:13:35.397Z,1018.32
2016-12-12T10:14:46.123Z,1018.38
2016-12-12T10:15:56.856Z,1018.36
2016-12-12T10:17:07.583Z,1018.35
2016-12-12T10:18:18.303Z,1018.34
2016-12-12T10:19:29.052Z,1018.4
2016-12-12T10:20:39.791Z,1018.38
2016-12-12T10:21:50.522Z,1018.36
2016-12-12T10:23:01.544Z,1018.44
2016-12-12T10:24:12.290Z,1018.44
2016-12-12T10:25:23.033Z,1018.39
2016-12-12T10:26:33.757Z,1018.47
2016-12-12T10:27:44.507Z,1018.46
2016-12-12T10:28:55.245Z,1018.46
2016-12-12T10:30:05.985Z,1018.5
2016-12-12T10:31:17.022Z,1018.52
2016-12-12T10:32:28.042Z,1018.54
2016-12-12T10:33:39.071Z,1018.52
2016-12-12T10:34:49.800Z,1018.54
2016-12-12T10:36:00.529Z,1018.46
2016-12-12T10:37:11.272Z,1018.6
2016-12-12T10:38:22.318Z,1018.58
2016-12-12T10:39:33.065Z,1018.57
2016-12-12T10:40:43.797Z,1018.66
2016-12-12T10:41:54.526Z,1018.66
2016-12-12T10:43:05.301Z,1018.7
2016-12-12T10:44:16.051Z,1018.73
2016-12-12T10:45:26.846Z,1018.84
2016-12-12T10:46:37.577Z,1018.84
2016-12-12T10:47:48.323Z,1018.74
2016-12-12T10:48:59.058Z,1018.9
2016-12-12T10:50:09.795Z,1018.86
2016-12-12T10:51:20.549Z,1018.94
2016-12-12T10:52:31.290Z,1019
2016-12-12T10:53:42.036Z,1019.01
2016-12-12T10:54:52.749Z,1018.92
2016-12-12T10:56:03.488Z,1018.96
2016-12-12T10:57:14.205Z,1018.92
2016-12-12T10:58:24.949Z,1019.01
2016-12-12T10:59:35.666Z,1019.06
2016-12-12T11:00:46.394Z,1019
2016-12-12T11:01:57.412Z,1019.03
2016-12-12T11:03:08.155Z,1019.07
2016-12-12T11:04:19.170Z,1019.04
2016-12-12T11:05:29.876Z,1019.12
2016-12-12T11:06:40.617Z,1019.16
2016-12-12T11:07:51.344Z,1019.09
2016-12-12T11:09:02.080Z,1019.14
2016-12-12T11:10:12.819Z,1019.1
2016-12-12T11:11:23.544Z,1019.12
2016-12-12T11:12:34.297Z,1019.11
2016-12-12T11:13:45.022Z,1019.11
2016-12-12T11:14:55.766Z,1019.12
2016-12-12T11:16:06.510Z,1019.1
2016-12-12T11:17:17.231Z,1019.04
2016-12-12T11:18:27.977Z,1018.99
2016-12-12T11:19:39.019Z,1018.99
2016-12-12T11:20:49.749Z,1019.03
2016-12-12T11:22:00.494Z,1019.07
2016-12-12T11:23:11.239Z,1019.05
2016-12-12T11:24:22.264Z,1019.01
2016-12-12T11:25:32.978Z,1019
2016-12-12T11:26:43.699Z,1018.97
2016-12-12T11:27:54.424Z,1019.03
2016-12-12T11:29:05.170Z,1019.03
2016-12-12T11:30:15.913Z,1019.07
2016-12-12T11:31:26.638Z,1019.11
2016-12-12T11:32:37.676Z,1019.1
2016-12-12T11:33:48.403Z,1019.14
2016-12-12T11:34:59.192Z,1019.13
2016-12-12T11:36:09.946Z,1019.14
2016-12-12T11:37:20.687Z,1019.13
2016-12-12T11:38:31.414Z,1019.13
2016-12-12T11:39:42.454Z,1019.08
2016-12-12T11:40:53.180Z,1019.08
2016-12-12T11:42:03.903Z,1019.06
2016-12-12T11:43:14.635Z,1019.05
2016-12-12T11:44:25.338Z,1019.05
2016-12-12T11:45:36.077Z,1019.08
2016-12-12T11:46:46.823Z,1019.04
2016-12-12T11:47:57.536Z,1019.01
2016-12-12T11:49:08.241Z,1019.09
2016-12-12T11:50:18.993Z,1019.08
2016-12-12T11:51:29.739Z,1019.08
2016-12-12T11:52:40.777Z,1019.13
2016-12-12T11:53:51.483Z,1019.18
2016-12-12T11:55:02.202Z,1019.22
2016-12-12T11:56:12.952Z,1019.27
2016-12-12T11:57:23.698Z,1019.27
2016-12-12T11:58:34.414Z,1019.28
2016-12-12T11:59:45.136Z,1019.3
2016-12-12T12:00:55.882Z,1019.31
2016-12-12T12:02:06.610Z,1019.33
2016-12-12T12:03:17.349Z,1019.34
2016-12-12T12:04:28.088Z,1019.29
2016-12-12T12:05:38.825Z,1019.32
2016-12-12T12:06:49.555Z,1019.29
2016-12-12T12:08:00.263Z,1019.3
2016-12-12T12:09:11.021Z,1019.31
2016-12-12T12:10:21.730Z,1019.33
2016-12-12T12:11:32.470Z,1019.36
2016-12-12T12:12:43.225Z,1019.33
2016-12-12T12:13:53.965Z,1019.39
2016-12-12T12:15:04.702Z,1019.4
2016-12-12T12:16:15.411Z,1019.36
2016-12-12T12:17:26.155Z,1019.42
2016-12-12T12:18:36.914Z,1019.42
2016-12-12T12:19:47.643Z,1019.43
2016-12-12T12:20:58.356Z,1019.49
2016-12-12T12:22:09.088Z,1019.4
2016-12-12T12:23:19.834Z,1019.47
2016-12-12T12:24:30.877Z,1019.54
2016-12-12T12:25:41.597Z,1019.52
2016-12-12T12:26:52.322Z,1019.54
2016-12-12T12:28:03.061Z,1019.52
2016-12-12T12:29:13.815Z,1019.58
2016-12-12T12:30:24.525Z,1019.59
2016-12-12T12:31:35.227Z,1019.57
2016-12-12T12:32:45.947Z,1019.63
2016-12-12T12:33:56.689Z,1019.58
2016-12-12T12:35:07.444Z,1019.57
2016-12-12T12:36:18.203Z,1019.58
2016-12-12T12:37:28.916Z,1019.56
2016-12-12T12:38:39.652Z,1019.6
2016-12-12T12:39:50.370Z,1019.59
2016-12-12T12:41:01.102Z,1019.66
2016-12-12T12:42:11.843Z,1019.63
2016-12-12T12:43:22.568Z,1019.66
2016-12-12T12:44:33.304Z,1019.71
2016-12-12T12:45:44.045Z,1019.68
2016-12-12T12:46:54.776Z,1019.72
2016-12-12T12:48:05.516Z,1019.75
2016-12-12T12:49:16.258Z,1019.81
2016-12-12T12:50:26.987Z,1019.81
2016-12-12T12:51:37.713Z,1019.79
2016-12-12T12:52:48.458Z,1019.83
2016-12-12T12:53:59.222Z,1019.86
2016-12-12T12:55:09.974Z,1019.86
2016-12-12T12:56:20.713Z,1019.87
2016-12-12T12:57:31.440Z,1019.9
2016-12-12T12:58:42.213Z,1019.88
2016-12-12T12:59:52.955Z,1019.89
2016-12-12T13:01:03.676Z,1019.86
2016-12-12T13:02:14.401Z,1019.9
2016-12-12T13:03:25.127Z,1019.97
2016-12-12T13:04:35.873Z,1019.93
2016-12-12T13:05:46.931Z,1019.93
2016-12-12T13:06:57.630Z,1019.97
2016-12-12T13:08:08.373Z,1019.99
2016-12-12T13:09:19.072Z,1020
2016-12-12T13:10:29.811Z,1020.01
2016-12-12T13:11:40.540Z,1020.01
2016-12-12T13:12:51.252Z,1020.05
2016-12-12T13:14:01.974Z,1020.09
2016-12-12T13:15:12.706Z,1020
2016-12-12T13:16:23.440Z,1020.05
2016-12-12T13:17:34.161Z,1020.12
2016-12-12T13:18:44.857Z,1020.12
2016-12-12T13:19:55.584Z,1020.17
2016-12-12T13:21:06.307Z,1020.11
2016-12-12T13:22:17.046Z,1020.25
2016-12-12T13:23:27.783Z,1020.2
2016-12-12T13:24:38.504Z,1020.21
2016-12-12T13:25:49.233Z,1020.24
2016-12-12T13:26:59.985Z,1020.21
2016-12-12T13:28:10.730Z,1020.21
2016-12-12T13:29:21.429Z,1020.26
2016-12-12T13:30:32.154Z,1020.22
2016-12-12T13:31:42.901Z,1020.26
2016-12-12T13:32:53.692Z,1020.3
2016-12-12T13:34:04.418Z,1020.3
2016-12-12T13:35:15.159Z,1020.36
2016-12-12T13:36:25.879Z,1020.39
2016-12-12T13:37:36.622Z,1020.37
2016-12-12T13:38:47.376Z,1020.34
2016-12-12T13:39:58.115Z,1020.4
2016-12-12T13:41:08.845Z,1020.39
2016-12-12T13:42:19.602Z,1020.4
2016-12-12T13:43:30.331Z,1020.39
2016-12-12T13:44:41.052Z,1020.42
2016-12-12T13:45:51.778Z,1020.43
2016-12-12T13:47:02.526Z,1020.42
2016-12-12T13:48:13.257Z,1020.47
2016-12-12T13:49:23.985Z,1020.48
2016-12-12T13:50:34.729Z,1020.46
2016-12-12T13:51:45.478Z,1020.47
2016-12-12T13:52:56.221Z,1020.49
2016-12-12T13:54:06.942Z,1020.53
2016-12-12T13:55:17.683Z,1020.51
2016-12-12T13:56:28.409Z,1020.55
2016-12-12T13:57:39.137Z,1020.59
2016-12-12T13:58:49.901Z,1020.6
2016-12-12T14:00:00.600Z,1020.67
2016-12-12T14:01:11.342Z,1020.6
2016-12-12T14:02:22.076Z,1020.61
2016-12-12T14:03:32.813Z,1020.68
2016-12-12T14:04:43.563Z,1020.67
2016-12-12T14:05:54.301Z,1020.72
2016-12-12T14:07:05.043Z,1020.71
2016-12-12T14:08:15.789Z,1020.73
2016-12-12T14:09:26.522Z,1020.86
2016-12-12T14:10:37.268Z,1020.84
2016-12-12T14:11:47.984Z,1020.86
2016-12-12T14:12:58.713Z,1020.87
2016-12-12T14:14:09.449Z,1020.87
2016-12-12T14:15:20.144Z,1020.87
2016-12-12T14:16:30.873Z,1020.9
2016-12-12T14:17:41.619Z,1020.99
2016-12-12T14:18:52.382Z,1020.95
2016-12-12T14:20:03.135Z,1021.02